Latest Weather Observations for Cape Moreton

IDQ60801

Issued at 9:02 pm EST Saturday 30 July 2016 (issued every 30 minutes, with the page automatically refreshed every 10 minutes)

About weather observations | Map of weather stations | Latest weather observations for QLD | Other Formats
Station Details ID: 040043 Name: CAPE MORETON LIGHTHOUSE Lat: -27.03 Lon: 153.47 Height: 99.9 m
Data from the previous 72 hours. | See also: Recent months at Cape Moreton
Date/Time
EST
Temp
°C
App
Temp
°C
Dew
Point
°C
Rel
Hum
%
Delta-T
°C
Wind Press
QNH
hPa
Press
MSL
hPa
Rain since
9am
mm
Dir  Spd
km/h
Gust
km/h
Spd
kts
Gust
kts
30/09:00pm 17.8 14.8 7.8 52 5.1 ENE 13 19 7 10 1020.4 1020.3 0.0
30/08:30pm 18.1 15.3 8.4 53 5.0 E 13 17 7 9 1020.4 1020.3 0.0
30/08:00pm 17.6 14.8 8.7 56 4.6 ESE 13 17 7 9 1020.3 1020.2 0.0
30/07:30pm 17.6 14.6 9.2 58 4.4 ESE 15 17 8 9 1020.1 1020.0 0.0
30/07:00pm 17.7 15.0 9.1 57 4.5 ESE 13 17 7 9 1019.7 1019.6 0.0
30/06:30pm 17.8 14.6 8.6 55 4.8 ESE 15 17 8 9 1019.5 1019.4 0.0
30/06:00pm 17.9 14.5 7.6 51 5.2 ESE 15 20 8 11 1019.2 1019.1 0.0
30/05:30pm 18.0 14.8 8.6 54 4.9 SE 15 19 8 10 1018.9 1018.8 0.0
30/05:00pm 18.5 15.5 7.9 50 5.4 SE 13 19 7 10 1018.9 1018.8 0.0
30/04:30pm 18.9 16.3 9.4 54 5.0 ESE 13 17 7 9 1018.6 1018.5 0.0
30/04:00pm 19.4 17.0 9.9 54 5.1 ESE 13 17 7 9 1018.4 1018.3 0.0
30/03:30pm 19.4 17.0 10.1 55 5.0 ESE 13 17 7 9 1018.4 1018.3 0.0
30/03:00pm 19.9 17.1 10.0 53 5.3 ESE 15 17 8 9 1018.4 1018.3 0.0
30/02:30pm 20.9 18.8 9.8 49 6.0 SSE 11 17 6 9 1018.5 1018.4 0.0
30/02:00pm 20.7 17.5 7.0 41 7.0 W 13 19 7 10 1018.5 1018.4 0.0
30/01:30pm 20.4 15.8 3.6 33 8.0 W 17 20 9 11 1018.8 1018.7 0.0
30/01:00pm 20.6 17.1 5.4 37 7.5 W 13 19 7 10 1018.9 1018.8 0.0
30/12:30pm 20.6 17.2 4.2 34 7.9 WSW 11 15 6 8 1019.4 1019.3 0.0
30/12:00pm 20.5 17.3 4.9 36 7.6 W 11 17 6 9 1019.9 1019.8 0.0
30/11:30am 20.7 17.8 6.6 40 7.2 WSW 11 17 6 9 1020.3 1020.2 0.0
30/11:00am 19.8 16.5 6.5 42 6.7 WSW 13 20 7 11 1020.6 1020.5 0.0
30/10:30am 19.4 16.2 8.4 49 5.7 WSW 15 20 8 11 1020.9 1020.8 0.0
30/10:00am 18.3 14.9 7.7 50 5.4 WSW 15 19 8 10 1021.0 1020.9 0.0
30/09:30am 18.1 15.1 10.5 61 4.1 WSW 17 20 9 11 1021.0 1020.9 0.0
30/09:00am 17.2 15.1 9.6 61 4.0 WSW 11 20 6 11 1021.1 1021.0 0.0
30/08:30am 16.3 14.9 12.1 76 2.3 SW 11 15 6 8 1021.0 1020.9 0.0
30/08:00am 14.9 13.3 11.5 80 1.8 SW 11 13 6 7 1020.8 1020.7 0.0
30/07:30am 14.3 11.4 10.9 80 1.8 WSW 17 20 9 11 1020.4 1020.3 0.0
30/07:00am 14.2 10.6 10.6 79 1.9 W 20 24 11 13 1020.1 1020.0 0.0
30/06:30am 14.2 10.3 10.8 80 1.8 W 22 26 12 14 1019.8 1019.7 0.0
30/06:00am 14.7 11.1 10.7 77 2.1 W 20 24 11 13 1019.7 1019.6 0.0
30/05:30am 14.5 10.8 10.3 76 2.2 W 20 24 11 13 1019.5 1019.4 0.0
30/05:00am 14.6 10.9 10.2 75 2.3 W 20 24 11 13 1019.3 1019.2 0.0
30/04:30am 15.2 11.2 10.6 74 2.4 W 22 28 12 15 1019.1 1019.0 0.0
30/04:00am 15.2 11.4 11.0 76 2.2 W 22 26 12 14 1019.2 1019.1 0.0
30/03:30am 14.9 11.3 12.0 83 1.6 W 22 24 12 13 1019.2 1019.1 0.0
30/03:00am 15.0 11.6 12.5 85 1.4 W 22 28 12 15 1019.4 1019.3 0.0
30/02:30am 15.8 12.7 13.3 85 1.4 W 22 24 12 13 1019.5 1019.4 0.0
30/02:00am 16.4 14.0 13.7 84 1.5 W 19 24 10 13 1019.7 1019.6 0.0
30/01:30am 16.8 14.8 13.9 83 1.7 WNW 17 20 9 11 1020.1 1020.0 0.0
30/01:00am 18.4 15.7 11.7 65 3.7 NNW 17 24 9 13 1020.4 1020.3 0.0
30/12:30am 18.3 15.5 11.4 64 3.8 NNW 17 20 9 11 1020.6 1020.5 0.0
30/12:00am 18.4 16.0 11.5 64 3.8 NNW 15 20 8 11 1020.8 1020.7 0.0
 
Date/Time
EST
Temp
°C
App
Temp
°C
Dew
Point
°C
Rel
Hum
%
Delta-T
°C
Wind Press
QNH
hPa
Press
MSL
hPa
Rain since
9am
mm
Dir  Spd
km/h
Gust
km/h
Spd
kts
Gust
kts
29/11:30pm 18.5 15.7 11.3 63 3.9 N 17 20 9 11 1020.9 1020.8 0.0
29/11:00pm 18.5 15.7 11.3 63 3.9 N 17 20 9 11 1021.0 1020.9 0.0
29/10:30pm 18.5 16.0 11.1 62 4.0 N 15 20 8 11 1021.0 1020.9 0.0
29/10:00pm 18.4 15.9 11.2 63 3.9 N 15 19 8 10 1021.1 1021.0 0.0
29/09:30pm 18.4 16.0 11.5 64 3.8 N 15 20 8 11 1021.0 1020.9 0.0
29/09:00pm 18.3 16.3 11.6 65 3.7 NNE 13 17 7 9 1021.0 1020.9 0.0
29/08:30pm 18.3 16.2 11.1 63 3.9 NNE 13 19 7 10 1020.9 1020.8 0.0
29/08:00pm 18.4 15.8 10.8 61 4.1 NE 15 20 8 11 1020.8 1020.7 0.0
29/07:30pm 18.4 15.9 11.0 62 4.0 NE 15 19 8 10 1020.7 1020.6 0.0
29/07:00pm 18.3 15.8 10.9 62 4.0 NE 15 20 8 11 1020.5 1020.4 0.0
29/06:30pm 18.4 15.3 11.5 64 3.8 NE 19 22 10 12 1020.2 1020.1 0.0
29/06:00pm 18.3 15.4 10.9 62 4.0 NE 17 20 9 11 1020.0 1019.9 0.0
29/05:30pm 18.2 15.0 11.3 64 3.8 ENE 19 22 10 12 1019.8 1019.7 0.0
29/05:00pm 18.3 15.4 10.9 62 4.0 ENE 17 20 9 11 1019.9 1019.8 0.0
29/04:30pm 18.6 16.0 10.7 60 4.3 ENE 15 17 8 9 1019.8 1019.7 0.0
29/04:00pm 19.2 17.7 10.5 57 4.7 ENE 9 13 5 7 1019.9 1019.8 0.0
29/03:30pm 19.4 17.5 10.4 56 4.9 NE 11 13 6 7 1020.0 1019.9 0.0
29/03:00pm 19.9 18.3 10.3 54 5.2 ENE 9 15 5 8 1020.1 1020.0 0.0
29/02:30pm 20.4 18.9 10.5 53 5.4 ENE 9 11 5 6 1020.2 1020.1 0.0
29/02:00pm 20.4 18.6 9.6 50 5.8 ENE 9 13 5 7 1020.6 1020.5 0.0
29/01:30pm 21.0 19.2 9.3 47 6.3 E 9 13 5 7 1020.8 1020.7 0.0
29/01:00pm 20.8 19.0 9.4 48 6.1 ESE 9 13 5 7 1021.1 1021.0 0.0
29/12:30pm 21.5 19.2 10.6 50 6.0 ESE 13 17 7 9 1021.4 1021.3 0.0
29/12:00pm 21.4 19.2 9.3 46 6.5 ESE 11 13 6 7 1022.0 1021.9 0.0
29/11:30am 21.2 19.4 9.4 47 6.3 ESE 9 13 5 7 1022.4 1022.3 0.0
29/11:00am 21.4 19.2 9.3 46 6.5 SE 11 13 6 7 1022.9 1022.8 0.0
29/10:30am 22.1 20.7 10.9 49 6.2 SE 9 13 5 7 1023.2 1023.0 0.0
29/10:00am 20.6 18.8 11.0 54 5.3 S 11 15 6 8 1023.6 1023.4 0.0
29/09:30am 20.2 18.8 10.9 55 5.1 SSW 9 13 5 7 1023.7 1023.5 0.0
29/09:00am 18.6 17.0 10.2 58 4.5 SSW 9 15 5 8 1023.6 1023.4 0.0
29/08:30am 17.3 15.0 10.4 64 3.7 SSW 13 17 7 9 1023.4 1023.2 0.0
29/08:00am 15.9 13.2 10.4 70 2.9 SSW 15 17 8 9 1023.2 1023.0 0.0
29/07:30am 14.8 11.1 9.6 71 2.7 SW 19 20 10 11 1022.9 1022.8 0.0
29/07:00am 14.4 11.1 9.6 73 2.5 SSW 17 19 9 10 1022.9 1022.8 0.0
29/06:30am 14.6 10.9 9.6 72 2.6 SSW 19 22 10 12 1022.6 1022.5 0.0
29/06:00am 14.7 11.4 9.5 71 2.7 SSW 17 20 9 11 1022.5 1022.4 0.0
29/05:30am 15.0 11.7 9.4 69 2.9 SW 17 19 9 10 1022.2 1022.1 0.0
29/05:00am 15.2 11.6 9.8 70 2.8 SW 19 20 10 11 1021.8 1021.7 0.0
29/04:30am 14.7 11.5 9.9 73 2.5 SW 17 19 9 10 1021.7 1021.6 0.0
29/04:00am 14.9 12.1 10.1 73 2.5 SW 15 17 8 9 1021.7 1021.6 0.0
29/03:30am 15.5 12.8 10.3 71 2.7 SSW 15 17 8 9 1021.7 1021.6 0.0
29/03:00am 15.2 12.1 10.2 72 2.6 SW 17 19 9 10 1021.8 1021.7 0.0
29/02:30am 16.0 13.3 10.3 69 3.0 SSW 15 17 8 9 1021.9 1021.8 0.0
29/02:00am 16.8 14.7 11.1 69 3.1 S 13 15 7 8 1021.9 1021.8 0.0
29/01:30am 16.9 14.8 11.0 68 3.2 S 13 15 7 8 1022.0 1021.9 0.0
29/01:00am 17.1 14.8 10.5 65 3.5 S 13 19 7 10 1022.0 1021.9 0.0
29/12:30am 18.0 14.7 9.4 57 4.5 ESE 17 22 9 12 1022.0 1021.9 0.0
29/12:00am 17.9 14.7 9.8 59 4.3 ESE 17 20 9 11 1022.2 1022.1 0.0
 
Date/Time
EST
Temp
°C
App
Temp
°C
Dew
Point
°C
Rel
Hum
%
Delta-T
°C
Wind Press
QNH
hPa
Press
MSL
hPa
Rain since
9am
mm
Dir  Spd
km/h
Gust
km/h
Spd
kts
Gust
kts
28/11:30pm 18.0 14.9 10.4 61 4.1 ESE 17 20 9 11 1022.4 1022.3 0.0
28/11:00pm 18.1 15.1 10.5 61 4.1 ESE 17 20 9 11 1022.6 1022.5 0.0
28/10:30pm 18.3 15.3 10.7 61 4.1 ESE 17 20 9 11 1022.8 1022.7 0.0
28/10:00pm 18.4 15.3 11.7 65 3.7 SE 19 24 10 13 1023.1 1022.9 0.0
28/09:30pm 18.3 15.0 11.6 65 3.7 SE 20 26 11 14 1023.1 1022.9 0.0
28/09:00pm 18.3 14.6 11.4 64 3.8 SE 22 32 12 17 1023.2 1023.0 0.0
28/08:30pm 18.2 14.6 11.7 66 3.6 SE 22 28 12 15 1023.2 1023.0 0.0
28/08:00pm 18.3 14.3 11.8 66 3.6 SE 24 30 13 16 1023.2 1023.0 0.0
28/07:30pm 18.2 14.3 12.0 67 3.4 SE 24 32 13 17 1023.2 1023.0 0.0
28/07:00pm 18.4 14.3 12.8 70 3.1 SE 26 33 14 18 1022.9 1022.8 0.0
28/06:30pm 18.2 14.4 12.4 69 3.2 SE 24 33 13 18 1022.5 1022.4 0.0
28/06:00pm 18.2 13.9 12.2 68 3.3 SE 26 32 14 17 1022.3 1022.2 0.0
28/05:30pm 18.1 14.2 12.1 68 3.3 SE 24 32 13 17 1022.2 1022.1 0.0
28/05:00pm 18.4 14.1 12.2 67 3.4 SE 26 32 14 17 1021.9 1021.8 0.0
28/04:30pm 18.6 14.3 11.9 65 3.7 SE 26 32 14 17 1021.8 1021.7 0.0
28/04:00pm 19.0 15.8 12.0 64 3.9 SSE 20 32 11 17 1021.6 1021.5 0.0
28/03:30pm 18.8 15.6 10.1 57 4.7 S 17 24 9 13 1021.7 1021.6 0.0
28/03:00pm 18.7 14.9 9.2 54 5.0 S 19 24 10 13 1021.7 1021.6 0.0
28/02:30pm 19.0 15.2 8.9 52 5.3 SSE 19 24 10 13 1021.8 1021.7 0.0
28/02:00pm 19.2 15.2 8.2 49 5.7 S 19 26 10 14 1021.9 1021.8 0.0
28/01:30pm 19.2 15.5 7.9 48 5.8 SSE 17 24 9 13 1022.0 1021.9 0.0
28/01:00pm 19.1 14.9 7.5 47 5.9 SSE 19 26 10 14 1022.3 1022.2 0.0
28/12:30pm 19.1 14.9 7.5 47 5.9 S 19 26 10 14 1022.5 1022.4 0.0
28/12:00pm 19.5 15.9 8.2 48 5.8 S 17 26 9 14 1022.9 1022.8 0.0
28/11:30am 19.7 16.5 8.4 48 5.9 SSE 15 22 8 12 1023.3 1023.1 0.0
28/11:00am 18.9 15.3 6.7 45 6.1 S 15 24 8 13 1023.7 1023.5 0.0
28/10:30am 18.6 15.1 7.1 47 5.8 SW 15 24 8 13 1023.8 1023.6 0.0
28/10:00am 18.1 14.3 6.0 45 5.9 SSW 15 24 8 13 1023.8 1023.6 0.0
28/09:30am 17.2 13.1 6.4 49 5.3 SW 17 24 9 13 1023.9 1023.7 0.0
28/09:00am 16.1 11.1 6.3 52 4.8 SW 22 30 12 16 1023.6 1023.4 0.0
28/08:30am 15.5 11.1 6.5 55 4.4 SW 19 24 10 13 1023.5 1023.3 0.0
28/08:00am 14.6 9.9 5.9 56 4.2 SW 20 32 11 17 1023.1 1022.9 0.0
28/07:30am 13.5 8.0 5.9 60 3.6 SW 24 32 13 17 1022.5 1022.4 0.0
28/07:00am 12.6 7.4 5.5 62 3.3 SW 22 28 12 15 1022.2 1022.1 0.0
28/06:30am 12.5 7.3 5.4 62 3.3 SSW 22 24 12 13 1021.9 1021.8 0.0
28/06:00am 12.6 7.7 5.3 61 3.4 SSW 20 26 11 14 1021.7 1021.6 0.0
28/05:30am 12.7 7.8 5.1 60 3.5 SSW 20 24 11 13 1021.4 1021.3 0.0
28/05:00am 13.2 8.0 5.4 59 3.6 SW 22 30 12 16 1020.9 1020.8 0.0
28/04:30am 13.8 8.1 4.7 54 4.2 SW 24 32 13 17 1020.7 1020.6 0.0
28/04:00am 13.8 8.1 4.7 54 4.2 SW 24 33 13 18 1020.7 1020.6 0.0
28/03:30am 14.0 7.9 4.9 54 4.3 SW 26 33 14 18 1020.7 1020.6 0.0
28/03:00am 14.1 8.5 5.2 55 4.2 SW 24 33 13 18 1020.9 1020.8 0.0
28/02:30am 14.3 9.1 5.7 56 4.1 SW 22 33 12 18 1020.9 1020.8 0.0
28/02:00am 14.3 8.7 5.4 55 4.2 SW 24 30 13 16 1021.0 1020.9 0.0
28/01:30am 14.5 9.3 5.3 54 4.4 SW 22 32 12 17 1021.1 1021.0 0.0
28/01:00am 14.5 9.3 5.6 55 4.2 SW 22 30 12 16 1021.1 1021.0 0.0
28/12:30am 14.2 9.2 6.3 59 3.8 SW 22 30 12 16 1020.9 1020.8 0.0
28/12:00am 14.3 9.7 6.6 60 3.7 SW 20 28 11 15 1021.0 1020.9 0.0
 
Date/Time
EST
Temp
°C
App
Temp
°C
Dew
Point
°C
Rel
Hum
%
Delta-T
°C
Wind Press
QNH
hPa
Press
MSL
hPa
Rain since
9am
mm
Dir  Spd
km/h
Gust
km/h
Spd
kts
Gust
kts
27/11:30pm 14.4 9.8 6.5 59 3.8 SW 20 28 11 15 1021.0 1020.9 0.0
27/11:00pm 14.9 9.8 6.2 56 4.2 SW 22 30 12 16 1020.8 1020.7 0.0
27/10:30pm 15.1 10.1 6.4 56 4.2 SW 22 30 12 16 1020.8 1020.7 0.0
27/10:00pm 15.7 10.7 6.4 54 4.5 SW 22 32 12 17 1020.8 1020.7 0.0
27/09:30pm 16.0 11.0 6.4 53 4.7 WSW 22 28 12 15 1020.6 1020.5 0.0

Other Formats:

Comma delimited format used in spreadsheet applications
http://www.bom.gov.au/fwo/IDQ60801/IDQ60801.94594.axf

JavaScript Object Notation format (JSON) in row-major order
http://www.bom.gov.au/fwo/IDQ60801/IDQ60801.94594.json